createdAt,value
2023-10-19T00:00:20.526Z,3.54
2023-10-19T00:00:45.667Z,3.53
2023-10-19T00:01:19.326Z,3.51
2023-10-19T00:01:35.266Z,3.52
2023-10-19T00:01:48.226Z,3.52
2023-10-19T00:02:02.631Z,3.51
2023-10-19T00:02:20.529Z,3.49
2023-10-19T00:02:33.449Z,3.49
2023-10-19T00:02:47.581Z,3.49
2023-10-19T00:03:03.714Z,3.49
2023-10-19T00:03:17.216Z,3.47
2023-10-19T00:03:29.872Z,3.47
2023-10-19T00:03:42.928Z,3.47
2023-10-19T00:03:57.325Z,3.49
2023-10-19T00:04:11.459Z,3.46
2023-10-19T00:04:25.612Z,3.46
2023-10-19T00:04:38.414Z,3.47
2023-10-19T00:04:51.142Z,3.46
2023-10-19T00:05:05.437Z,3.46
2023-10-19T00:05:18.522Z,3.45
2023-10-19T00:05:33.301Z,3.45
2023-10-19T00:05:46.396Z,3.44
2023-10-19T00:05:59.075Z,3.44
2023-10-19T00:06:13.005Z,3.44
2023-10-19T00:06:25.592Z,3.43
2023-10-19T00:06:41.249Z,3.43
2023-10-19T00:06:54.344Z,3.43
2023-10-19T00:07:09.015Z,3.43
2023-10-19T00:07:21.644Z,3.42
2023-10-19T00:07:34.471Z,3.40
2023-10-19T00:07:47.582Z,3.41
2023-10-19T00:08:06.453Z,3.40
2023-10-19T00:08:22.170Z,3.40
2023-10-19T00:08:41.956Z,3.41
2023-10-19T00:08:54.604Z,3.39
2023-10-19T00:09:12.491Z,3.39
2023-10-19T00:09:26.554Z,3.39
2023-10-19T00:09:39.892Z,3.39
2023-10-19T00:09:54.890Z,3.38
2023-10-19T00:10:08.330Z,3.37
2023-10-19T00:10:22.317Z,3.38
2023-10-19T00:10:36.397Z,3.38
2023-10-19T00:10:56.687Z,3.37
2023-10-19T00:11:11.733Z,3.36
2023-10-19T00:11:25.625Z,3.36
2023-10-19T00:11:41.756Z,3.36
2023-10-19T00:11:54.579Z,3.36
2023-10-19T00:12:07.766Z,3.36
2023-10-19T00:12:23.367Z,3.35
2023-10-19T00:12:36.372Z,3.34
2023-10-19T00:12:58.308Z,3.34
2023-10-19T00:13:13.130Z,3.33
2023-10-19T00:13:25.838Z,3.33
2023-10-19T00:13:40.229Z,3.33
2023-10-19T00:13:55.763Z,3.33
2023-10-19T00:14:16.849Z,3.32
2023-10-19T00:14:29.564Z,3.32
2023-10-19T00:14:42.632Z,3.31
2023-10-19T00:14:56.200Z,3.31
2023-10-19T00:15:11.207Z,3.30
2023-10-19T00:15:25.235Z,3.31
2023-10-19T00:15:41.077Z,3.29
2023-10-19T00:15:54.767Z,3.29
2023-10-19T00:16:18.267Z,3.29
2023-10-19T00:16:31.784Z,3.27
2023-10-19T00:16:45.947Z,3.27
2023-10-19T00:17:01.765Z,3.28
2023-10-19T00:17:16.167Z,3.26
2023-10-19T00:17:29.941Z,3.26
2023-10-19T00:17:45.949Z,3.25
2023-10-19T00:18:00.594Z,3.26
2023-10-19T00:18:24.897Z,3.25
2023-10-19T00:18:37.747Z,3.25
2023-10-19T00:18:51.276Z,3.25
2023-10-19T00:19:04.816Z,3.23
2023-10-19T00:19:20.772Z,3.23
2023-10-19T00:19:40.823Z,3.23
2023-10-19T00:19:59.380Z,3.22
2023-10-19T00:20:37.985Z,3.22
2023-10-19T00:20:53.566Z,3.21
2023-10-19T00:21:20.171Z,3.20
2023-10-19T00:21:49.471Z,3.19
2023-10-19T00:22:09.593Z,3.19
2023-10-19T00:22:22.615Z,3.19
2023-10-19T00:22:37.585Z,3.18
2023-10-19T00:22:50.340Z,3.17
2023-10-19T00:23:06.646Z,3.17
2023-10-19T00:23:23.072Z,3.17
2023-10-19T00:23:36.267Z,3.16
2023-10-19T00:23:50.186Z,3.16
2023-10-19T00:24:06.064Z,3.15
2023-10-19T00:24:20.686Z,3.15
2023-10-19T00:24:33.305Z,3.15
2023-10-19T00:24:47.142Z,3.15
2023-10-19T00:25:00.414Z,3.14
2023-10-19T00:25:14.613Z,3.14
2023-10-19T00:25:27.519Z,3.14
2023-10-19T00:25:42.769Z,3.14
2023-10-19T00:25:56.010Z,3.13
2023-10-19T00:26:09.799Z,3.13
2023-10-19T00:26:26.257Z,3.13
2023-10-19T00:26:41.358Z,3.12
2023-10-19T00:26:56.163Z,3.12
2023-10-19T00:27:16.935Z,3.12
2023-10-19T00:27:30.717Z,3.12
2023-10-19T00:27:43.925Z,3.12
2023-10-19T00:27:56.583Z,3.12
2023-10-19T00:28:09.651Z,3.11
2023-10-19T00:28:23.725Z,3.12
2023-10-19T00:28:36.966Z,3.11
2023-10-19T00:28:54.037Z,3.10
2023-10-19T00:29:19.652Z,3.09
2023-10-19T00:29:33.826Z,3.09
2023-10-19T00:29:50.483Z,3.09
2023-10-19T00:30:08.063Z,3.10
2023-10-19T00:30:24.791Z,3.10
2023-10-19T00:30:37.397Z,3.09
2023-10-19T00:30:52.504Z,3.09
2023-10-19T00:31:09.681Z,3.08
2023-10-19T00:31:22.536Z,3.08
2023-10-19T00:31:37.792Z,3.08
2023-10-19T00:31:50.966Z,3.05
2023-10-19T00:32:04.054Z,3.05
2023-10-19T00:32:19.151Z,3.05
2023-10-19T00:32:33.388Z,3.05
2023-10-19T00:32:47.041Z,3.04
2023-10-19T00:33:04.835Z,3.04
2023-10-19T00:33:18.713Z,3.03
2023-10-19T00:33:33.461Z,3.01
2023-10-19T00:33:46.583Z,3.01
2023-10-19T00:34:02.120Z,3.00
2023-10-19T00:34:15.277Z,2.98
2023-10-19T00:34:30.103Z,2.98
2023-10-19T00:34:51.462Z,2.98
2023-10-19T00:35:09.731Z,2.97
2023-10-19T00:35:28.686Z,2.98
2023-10-19T00:35:48.463Z,2.98
2023-10-19T00:36:08.636Z,2.98
2023-10-19T00:36:21.968Z,2.96
2023-10-19T00:36:34.783Z,2.96
2023-10-19T00:36:47.696Z,2.96
2023-10-19T00:37:08.748Z,2.96
2023-10-19T00:37:27.355Z,2.96
2023-10-19T00:37:43.817Z,2.96
2023-10-19T00:38:18.238Z,2.95
2023-10-19T00:38:42.155Z,2.94
2023-10-19T00:38:56.542Z,2.94
2023-10-19T00:39:16.712Z,2.93
2023-10-19T00:39:34.344Z,2.94
2023-10-19T00:39:54.862Z,2.93
2023-10-19T00:40:17.130Z,2.92
2023-10-19T00:40:36.232Z,2.92
2023-10-19T00:40:54.723Z,2.91
2023-10-19T00:41:08.551Z,2.92
2023-10-19T00:41:28.740Z,2.91
2023-10-19T00:41:42.050Z,2.90
2023-10-19T00:41:58.647Z,2.90
2023-10-19T00:42:11.370Z,2.90
2023-10-19T00:42:27.234Z,2.89
2023-10-19T00:42:46.907Z,2.88
2023-10-19T00:42:59.634Z,2.88
2023-10-19T00:43:14.161Z,2.87
2023-10-19T00:43:33.952Z,2.86
2023-10-19T00:43:47.165Z,2.86
2023-10-19T00:44:04.467Z,2.85
2023-10-19T00:44:23.389Z,2.83
2023-10-19T00:44:43.126Z,2.83
2023-10-19T00:45:02.928Z,2.83
2023-10-19T00:45:16.882Z,2.83
2023-10-19T00:45:29.542Z,2.83
2023-10-19T00:45:42.884Z,2.82
2023-10-19T00:45:55.613Z,2.82
2023-10-19T00:46:11.221Z,2.83
2023-10-19T00:46:26.728Z,2.82
2023-10-19T00:46:44.685Z,2.82
2023-10-19T00:47:04.069Z,2.81
2023-10-19T00:47:20.104Z,2.81
2023-10-19T00:47:41.264Z,2.81
2023-10-19T00:47:54.475Z,2.79
2023-10-19T00:48:09.664Z,2.78
2023-10-19T00:48:27.231Z,2.79
2023-10-19T00:48:41.351Z,2.77
2023-10-19T00:48:57.274Z,2.76
2023-10-19T00:49:13.860Z,2.75
2023-10-19T00:49:27.412Z,2.76
2023-10-19T00:49:40.344Z,2.74
2023-10-19T00:49:56.132Z,2.74
2023-10-19T00:50:17.156Z,2.73
2023-10-19T00:50:32.234Z,2.72
2023-10-19T00:50:48.916Z,2.70
2023-10-19T00:51:10.652Z,2.69
2023-10-19T00:51:31.477Z,2.67
2023-10-19T00:51:55.135Z,2.67
2023-10-19T00:52:12.598Z,2.66
2023-10-19T00:52:25.865Z,2.66
2023-10-19T00:52:45.191Z,2.64
2023-10-19T00:52:59.250Z,2.64
2023-10-19T00:53:13.950Z,2.64
2023-10-19T00:53:27.868Z,2.63
2023-10-19T00:53:40.848Z,2.64
2023-10-19T00:53:55.364Z,2.63
2023-10-19T00:54:12.012Z,2.62
2023-10-19T00:54:36.830Z,2.62
2023-10-19T00:54:59.921Z,2.62
2023-10-19T00:55:16.048Z,2.61
2023-10-19T00:55:30.008Z,2.62
2023-10-19T00:55:43.287Z,2.61
2023-10-19T00:55:56.714Z,2.62
2023-10-19T00:56:10.598Z,2.61
2023-10-19T00:56:27.047Z,2.61
2023-10-19T00:56:45.768Z,2.61
2023-10-19T00:57:03.468Z,2.60
2023-10-19T00:57:21.467Z,2.62
2023-10-19T00:57:35.249Z,2.61
2023-10-19T00:57:50.341Z,2.62
2023-10-19T00:58:10.789Z,2.62
2023-10-19T00:58:30.331Z,2.61
2023-10-19T00:58:48.984Z,2.61
2023-10-19T00:59:13.676Z,2.61
2023-10-19T00:59:31.079Z,2.61
2023-10-19T00:59:44.801Z,2.61
2023-10-19T01:00:12.493Z,2.61
2023-10-19T01:00:32.898Z,2.61
2023-10-19T01:00:45.938Z,2.61
2023-10-19T01:01:01.022Z,2.61
2023-10-19T01:01:14.374Z,2.61
2023-10-19T01:01:30.440Z,2.60
2023-10-19T01:01:45.720Z,2.60
2023-10-19T01:02:05.916Z,2.60
2023-10-19T01:02:18.937Z,2.61
2023-10-19T01:02:32.862Z,2.60
2023-10-19T01:02:46.800Z,2.59
2023-10-19T01:03:01.655Z,2.60
2023-10-19T01:03:18.322Z,2.60
2023-10-19T01:03:36.606Z,2.61
2023-10-19T01:03:53.664Z,2.59
2023-10-19T01:04:06.535Z,2.59
2023-10-19T01:04:21.963Z,2.58
2023-10-19T01:04:35.941Z,2.55
2023-10-19T01:04:52.253Z,2.56
2023-10-19T01:05:07.683Z,2.54
2023-10-19T01:05:23.021Z,2.53
2023-10-19T01:05:37.371Z,2.52
2023-10-19T01:05:51.438Z,2.51
2023-10-19T01:06:10.772Z,2.50
2023-10-19T01:06:23.645Z,2.50
2023-10-19T01:06:37.011Z,2.50
2023-10-19T01:07:01.997Z,2.49
2023-10-19T01:07:17.040Z,2.48
2023-10-19T01:07:31.456Z,2.48
2023-10-19T01:07:46.158Z,2.47
2023-10-19T01:08:03.463Z,2.46
2023-10-19T01:08:24.750Z,2.47
2023-10-19T01:08:46.243Z,2.45
2023-10-19T01:08:59.062Z,2.44
2023-10-19T01:09:15.911Z,2.45
2023-10-19T01:09:29.055Z,2.42
2023-10-19T01:09:45.163Z,2.43
2023-10-19T01:10:00.566Z,2.44
2023-10-19T01:10:13.974Z,2.43
2023-10-19T01:10:29.419Z,2.43
2023-10-19T01:10:43.658Z,2.43
2023-10-19T01:10:56.329Z,2.43
2023-10-19T01:11:12.088Z,2.44
2023-10-19T01:11:29.814Z,2.43
2023-10-19T01:11:46.937Z,2.43
2023-10-19T01:12:03.103Z,2.42
2023-10-19T01:12:26.353Z,2.42
2023-10-19T01:12:40.686Z,2.42
2023-10-19T01:12:53.866Z,2.42
2023-10-19T01:13:07.101Z,2.43
2023-10-19T01:13:19.891Z,2.41
2023-10-19T01:13:36.053Z,2.42
2023-10-19T01:13:52.757Z,2.42
2023-10-19T01:14:19.561Z,2.42
2023-10-19T01:14:33.672Z,2.41
2023-10-19T01:14:46.496Z,2.42
2023-10-19T01:15:08.617Z,2.41
2023-10-19T01:15:30.674Z,2.42
2023-10-19T01:15:43.446Z,2.42
2023-10-19T01:15:57.606Z,2.41
2023-10-19T01:16:17.210Z,2.41
2023-10-19T01:16:30.195Z,2.41
2023-10-19T01:16:43.132Z,2.42
2023-10-19T01:16:57.999Z,2.46
2023-10-19T01:17:12.719Z,2.46
2023-10-19T01:17:28.120Z,2.44
2023-10-19T01:17:45.006Z,2.44
2023-10-19T01:18:00.454Z,2.44
2023-10-19T01:18:15.652Z,2.43
2023-10-19T01:18:30.658Z,2.42
2023-10-19T01:18:44.411Z,2.42
2023-10-19T01:18:56.978Z,2.44
2023-10-19T01:19:09.571Z,2.43
2023-10-19T01:19:22.161Z,2.42
2023-10-19T01:19:35.321Z,2.41
2023-10-19T01:19:48.018Z,2.40
2023-10-19T01:20:00.750Z,2.39
2023-10-19T01:20:21.166Z,2.38
2023-10-19T01:20:49.300Z,2.39
2023-10-19T01:21:05.219Z,2.38
2023-10-19T01:21:22.271Z,2.37
2023-10-19T01:21:38.817Z,2.38
2023-10-19T01:21:53.476Z,2.36
2023-10-19T01:22:07.727Z,2.37
2023-10-19T01:22:20.364Z,2.35
2023-10-19T01:22:33.109Z,2.36
2023-10-19T01:22:51.362Z,2.36
2023-10-19T01:23:16.105Z,2.35
2023-10-19T01:23:29.121Z,2.35
2023-10-19T01:23:42.378Z,2.34
2023-10-19T01:23:56.204Z,2.35
2023-10-19T01:24:09.600Z,2.34
2023-10-19T01:24:33.199Z,2.35
2023-10-19T01:24:45.792Z,2.35
2023-10-19T01:24:58.403Z,2.34
2023-10-19T01:25:11.878Z,2.34
2023-10-19T01:25:35.154Z,2.34
2023-10-19T01:25:51.721Z,2.35
2023-10-19T01:26:09.125Z,2.35
2023-10-19T01:26:23.413Z,2.35
2023-10-19T01:26:38.947Z,2.35
2023-10-19T01:26:54.909Z,2.34
2023-10-19T01:27:10.074Z,2.35
2023-10-19T01:27:23.452Z,2.36
2023-10-19T01:27:36.252Z,2.35
2023-10-19T01:27:48.894Z,2.35
2023-10-19T01:28:08.422Z,2.35
2023-10-19T01:28:26.632Z,2.35
2023-10-19T01:28:49.180Z,2.34
2023-10-19T01:29:02.770Z,2.34
2023-10-19T01:29:16.112Z,2.33
2023-10-19T01:29:28.751Z,2.32
2023-10-19T01:29:42.245Z,2.32
2023-10-19T01:29:54.967Z,2.32
2023-10-19T01:30:10.458Z,2.31
2023-10-19T01:30:24.258Z,2.31
2023-10-19T01:30:37.520Z,2.31
2023-10-19T01:30:53.070Z,2.31
2023-10-19T01:31:09.800Z,2.31
2023-10-19T01:31:32.262Z,2.29
2023-10-19T01:31:57.623Z,2.28
2023-10-19T01:32:10.634Z,2.25
2023-10-19T01:32:24.378Z,2.25
2023-10-19T01:32:37.105Z,2.23
2023-10-19T01:32:49.792Z,2.22
2023-10-19T01:33:04.055Z,2.22
2023-10-19T01:33:17.031Z,2.21
2023-10-19T01:33:32.126Z,2.20
2023-10-19T01:33:45.559Z,2.19
2023-10-19T01:34:00.444Z,2.19
2023-10-19T01:34:13.266Z,2.18
2023-10-19T01:34:28.039Z,2.17
2023-10-19T01:34:40.608Z,2.17
2023-10-19T01:34:53.321Z,2.17
2023-10-19T01:35:06.428Z,2.19
2023-10-19T01:35:19.370Z,2.17
2023-10-19T01:35:52.661Z,2.17
2023-10-19T01:36:26.642Z,2.19
2023-10-19T01:36:43.495Z,2.19
2023-10-19T01:36:57.248Z,2.21
2023-10-19T01:37:13.267Z,2.20
2023-10-19T01:37:25.995Z,2.20
2023-10-19T01:37:39.404Z,2.20
2023-10-19T01:37:53.659Z,2.20
2023-10-19T01:38:07.839Z,2.20
2023-10-19T01:38:20.400Z,2.20
2023-10-19T01:38:33.924Z,2.21
2023-10-19T01:38:48.681Z,2.21
2023-10-19T01:39:02.479Z,2.21
2023-10-19T01:39:15.502Z,2.21
2023-10-19T01:39:29.083Z,2.21
2023-10-19T01:39:46.554Z,2.21
2023-10-19T01:39:59.134Z,2.23
2023-10-19T01:40:16.511Z,2.22
2023-10-19T01:40:33.805Z,2.22
2023-10-19T01:40:47.686Z,2.22
2023-10-19T01:41:00.602Z,2.22
2023-10-19T01:41:17.058Z,2.23
2023-10-19T01:41:32.100Z,2.22
2023-10-19T01:41:45.621Z,2.22
2023-10-19T01:41:58.667Z,2.23
2023-10-19T01:42:11.578Z,2.23
2023-10-19T01:42:24.377Z,2.22
2023-10-19T01:42:36.999Z,2.22
2023-10-19T01:42:51.112Z,2.22
2023-10-19T01:43:04.686Z,2.21
2023-10-19T01:43:22.690Z,2.21
2023-10-19T01:43:35.589Z,2.22
2023-10-19T01:43:51.603Z,2.22
2023-10-19T01:44:06.052Z,2.21
2023-10-19T01:44:21.988Z,2.21
2023-10-19T01:44:37.419Z,2.21
2023-10-19T01:44:50.086Z,2.20
2023-10-19T01:45:02.654Z,2.20
2023-10-19T01:45:15.482Z,2.25
2023-10-19T01:45:28.091Z,2.27
2023-10-19T01:45:40.722Z,2.28
2023-10-19T01:45:55.619Z,2.27
2023-10-19T01:46:14.071Z,2.27
2023-10-19T01:46:26.917Z,2.26
2023-10-19T01:46:40.500Z,2.27
2023-10-19T01:46:53.364Z,2.25
2023-10-19T01:47:07.317Z,2.26
2023-10-19T01:47:21.595Z,2.25
2023-10-19T01:47:34.366Z,2.23
2023-10-19T01:47:47.097Z,2.22
2023-10-19T01:48:01.344Z,2.22
2023-10-19T01:48:14.282Z,2.22
2023-10-19T01:48:33.158Z,2.20
2023-10-19T01:48:45.817Z,2.19
2023-10-19T01:48:59.714Z,2.20
2023-10-19T01:49:12.590Z,2.19
2023-10-19T01:49:27.631Z,2.18
2023-10-19T01:49:40.767Z,2.18
2023-10-19T01:49:53.561Z,2.17
2023-10-19T01:50:07.415Z,2.16
2023-10-19T01:50:21.178Z,2.16
2023-10-19T01:50:33.950Z,2.16
2023-10-19T01:50:46.679Z,2.15
2023-10-19T01:51:00.362Z,2.15
2023-10-19T01:51:14.590Z,2.14
2023-10-19T01:51:29.752Z,2.14
2023-10-19T01:51:45.291Z,2.14
2023-10-19T01:51:57.972Z,2.14
2023-10-19T01:52:11.555Z,2.14
2023-10-19T01:52:26.067Z,2.13
2023-10-19T01:52:39.251Z,2.12
2023-10-19T01:52:53.304Z,2.12
2023-10-19T01:53:13.915Z,2.11
2023-10-19T01:53:26.823Z,2.12
2023-10-19T01:53:41.141Z,2.12
2023-10-19T01:53:56.629Z,2.11
2023-10-19T01:54:10.796Z,2.11
2023-10-19T01:54:24.850Z,2.12
2023-10-19T01:54:39.126Z,2.11
2023-10-19T01:55:00.185Z,2.11
2023-10-19T01:55:13.690Z,2.12
2023-10-19T01:55:27.426Z,2.13
2023-10-19T01:55:40.118Z,2.12
2023-10-19T01:55:59.000Z,2.13
2023-10-19T01:56:14.046Z,2.12
2023-10-19T01:56:26.816Z,2.13
2023-10-19T01:56:40.193Z,2.13
2023-10-19T01:56:55.928Z,2.13
2023-10-19T01:57:09.697Z,2.12
2023-10-19T01:57:22.827Z,2.12
2023-10-19T01:57:35.845Z,2.12
2023-10-19T01:57:48.496Z,2.13
2023-10-19T01:58:01.139Z,2.13
2023-10-19T01:58:15.649Z,2.13
2023-10-19T01:58:28.503Z,2.14
2023-10-19T01:58:42.468Z,2.14
2023-10-19T01:58:56.308Z,2.14
2023-10-19T01:59:10.387Z,2.15
2023-10-19T01:59:24.559Z,2.16
2023-10-19T01:59:37.185Z,2.15
2023-10-19T01:59:50.491Z,2.14
2023-10-19T02:00:11.362Z,2.15
2023-10-19T02:00:24.232Z,2.15
2023-10-19T02:00:38.358Z,2.14
2023-10-19T02:00:51.180Z,2.15
2023-10-19T02:01:09.349Z,2.14
2023-10-19T02:01:30.286Z,2.14
2023-10-19T02:01:46.490Z,2.14
2023-10-19T02:02:00.537Z,2.14
2023-10-19T02:02:13.350Z,2.12
2023-10-19T02:02:26.254Z,2.13
2023-10-19T02:02:39.663Z,2.13
2023-10-19T02:02:52.516Z,2.13
2023-10-19T02:03:08.807Z,2.13
2023-10-19T02:03:23.841Z,2.12
2023-10-19T02:03:37.949Z,2.12
2023-10-19T02:03:56.057Z,2.11
2023-10-19T02:04:10.323Z,2.11
2023-10-19T02:04:23.285Z,2.11
2023-10-19T02:04:36.831Z,2.10
2023-10-19T02:04:52.386Z,2.11
2023-10-19T02:05:09.867Z,2.11
2023-10-19T02:05:23.347Z,2.10
2023-10-19T02:05:40.801Z,2.10
2023-10-19T02:06:00.326Z,2.09
2023-10-19T02:06:18.113Z,2.07
2023-10-19T02:06:36.886Z,2.07
2023-10-19T02:06:50.152Z,2.07
2023-10-19T02:07:02.830Z,2.06
2023-10-19T02:07:19.359Z,2.07
2023-10-19T02:07:32.176Z,2.06
2023-10-19T02:07:45.003Z,2.05
2023-10-19T02:07:59.162Z,2.04
2023-10-19T02:08:11.777Z,2.05
2023-10-19T02:08:26.844Z,2.04
2023-10-19T02:08:39.921Z,2.04
2023-10-19T02:08:57.967Z,2.04
2023-10-19T02:09:18.857Z,2.04
2023-10-19T02:09:35.087Z,2.04
2023-10-19T02:09:48.017Z,2.03
2023-10-19T02:10:01.012Z,2.03
2023-10-19T02:10:13.641Z,2.03
2023-10-19T02:10:28.425Z,2.03
2023-10-19T02:10:43.275Z,2.03
2023-10-19T02:10:55.961Z,2.03
2023-10-19T02:11:17.635Z,2.03
2023-10-19T02:11:30.641Z,2.03
2023-10-19T02:11:46.833Z,2.02
2023-10-19T02:11:59.967Z,2.03
2023-10-19T02:12:13.259Z,2.02
2023-10-19T02:12:25.884Z,2.02
2023-10-19T02:12:40.266Z,2.02
2023-10-19T02:12:56.418Z,2.03
2023-10-19T02:13:12.089Z,2.02
2023-10-19T02:13:24.783Z,2.02
2023-10-19T02:13:40.848Z,2.02
2023-10-19T02:13:55.596Z,2.03
2023-10-19T02:14:15.250Z,2.02
2023-10-19T02:14:30.489Z,2.03
2023-10-19T02:14:44.668Z,2.02
2023-10-19T02:14:57.270Z,2.03
2023-10-19T02:15:10.218Z,2.03
2023-10-19T02:15:23.341Z,2.02
2023-10-19T02:15:36.206Z,2.03
2023-10-19T02:15:50.498Z,2.04
2023-10-19T02:16:03.275Z,2.03
2023-10-19T02:16:17.056Z,2.03
2023-10-19T02:16:30.779Z,2.03
2023-10-19T02:16:44.663Z,2.03
2023-10-19T02:17:00.330Z,2.04
2023-10-19T02:17:16.367Z,2.03
2023-10-19T02:17:29.165Z,2.03
2023-10-19T02:17:42.478Z,2.03
2023-10-19T02:17:57.098Z,2.03
2023-10-19T02:18:10.271Z,2.04
2023-10-19T02:18:23.036Z,2.04
2023-10-19T02:18:36.009Z,2.05
2023-10-19T02:18:49.284Z,2.05
2023-10-19T02:19:02.595Z,2.04
2023-10-19T02:19:15.889Z,2.05
2023-10-19T02:19:30.454Z,2.05
2023-10-19T02:19:45.191Z,2.05
2023-10-19T02:19:58.278Z,2.05
2023-10-19T02:20:20.948Z,2.06
2023-10-19T02:20:41.458Z,2.05
2023-10-19T02:20:54.269Z,2.05
2023-10-19T02:21:07.505Z,2.05
2023-10-19T02:21:23.535Z,2.03
2023-10-19T02:21:40.960Z,2.03
2023-10-19T02:21:55.197Z,2.02
2023-10-19T02:22:09.791Z,2.03
2023-10-19T02:22:22.796Z,2.03
2023-10-19T02:22:36.869Z,2.03
2023-10-19T02:22:50.478Z,2.02
2023-10-19T02:23:05.115Z,2.03
2023-10-19T02:23:17.734Z,2.02
2023-10-19T02:23:30.350Z,2.02
2023-10-19T02:23:43.050Z,2.01
2023-10-19T02:23:55.657Z,2.01
2023-10-19T02:24:09.370Z,2.00
2023-10-19T02:24:22.016Z,2.01
2023-10-19T02:24:34.846Z,2.00
2023-10-19T02:24:47.531Z,2.00
2023-10-19T02:25:00.230Z,2.00
2023-10-19T02:25:14.596Z,2.00
2023-10-19T02:25:31.795Z,2.00
2023-10-19T02:25:44.604Z,1.98
2023-10-19T02:25:57.607Z,1.98
2023-10-19T02:26:10.740Z,1.98
2023-10-19T02:26:24.209Z,1.98
2023-10-19T02:26:38.715Z,1.98
2023-10-19T02:26:55.735Z,1.97
2023-10-19T02:27:11.417Z,1.97
2023-10-19T02:27:32.745Z,1.96
2023-10-19T02:27:46.462Z,1.96
2023-10-19T02:27:59.088Z,1.96
2023-10-19T02:28:12.950Z,1.97
2023-10-19T02:28:32.404Z,1.97
2023-10-19T02:28:45.509Z,1.97
2023-10-19T02:28:59.474Z,1.96
2023-10-19T02:29:13.667Z,1.96
2023-10-19T02:29:27.156Z,1.96
2023-10-19T02:29:39.975Z,1.96
2023-10-19T02:29:52.885Z,1.95
2023-10-19T02:30:06.622Z,1.96
2023-10-19T02:30:19.275Z,1.95
2023-10-19T02:30:32.116Z,1.95
2023-10-19T02:30:45.666Z,1.96
2023-10-19T02:30:58.790Z,1.96
2023-10-19T02:31:21.981Z,1.94
2023-10-19T02:31:35.250Z,1.95
2023-10-19T02:31:49.304Z,1.94
2023-10-19T02:32:06.656Z,1.94
2023-10-19T02:32:20.290Z,1.94
2023-10-19T02:32:34.523Z,1.94
2023-10-19T02:32:48.851Z,1.94
2023-10-19T02:33:02.163Z,1.94
2023-10-19T02:33:14.847Z,1.94
2023-10-19T02:33:27.783Z,1.93
2023-10-19T02:33:40.402Z,1.93
2023-10-19T02:33:59.931Z,1.93
2023-10-19T02:34:16.353Z,1.92
2023-10-19T02:34:29.374Z,1.95
2023-10-19T02:34:42.442Z,1.94
2023-10-19T02:34:55.269Z,1.94
2023-10-19T02:35:08.490Z,1.94
2023-10-19T02:35:21.134Z,1.94
2023-10-19T02:35:36.109Z,1.94
2023-10-19T02:35:49.183Z,1.94
2023-10-19T02:36:02.224Z,1.94
2023-10-19T02:36:17.234Z,1.93
2023-10-19T02:36:31.642Z,1.94
2023-10-19T02:36:45.882Z,1.92
2023-10-19T02:36:58.513Z,1.93
2023-10-19T02:37:11.183Z,1.94
2023-10-19T02:37:26.401Z,1.94
2023-10-19T02:37:39.961Z,1.93
2023-10-19T02:37:52.679Z,1.94
2023-10-19T02:38:06.763Z,1.94
2023-10-19T02:38:19.387Z,1.93
2023-10-19T02:38:34.371Z,1.92
2023-10-19T02:38:49.842Z,1.93
2023-10-19T02:39:08.629Z,1.91
2023-10-19T02:39:22.894Z,1.91
2023-10-19T02:39:35.555Z,1.90
2023-10-19T02:39:48.181Z,1.91
2023-10-19T02:40:01.760Z,1.90
2023-10-19T02:40:20.727Z,1.91
2023-10-19T02:40:33.523Z,1.91
2023-10-19T02:40:47.721Z,1.91
2023-10-19T02:41:01.767Z,1.91
2023-10-19T02:41:14.411Z,1.91
2023-10-19T02:41:28.204Z,1.91
2023-10-19T02:41:43.088Z,1.92
2023-10-19T02:41:56.002Z,1.92
2023-10-19T02:42:09.295Z,1.92
2023-10-19T02:42:23.416Z,1.91
2023-10-19T02:42:36.207Z,1.91
2023-10-19T02:42:48.848Z,1.92
2023-10-19T02:43:04.054Z,1.92
2023-10-19T02:43:16.737Z,1.93
2023-10-19T02:43:30.993Z,1.92
2023-10-19T02:43:46.916Z,1.92
2023-10-19T02:44:03.454Z,1.91
2023-10-19T02:44:23.444Z,1.92
2023-10-19T02:44:36.228Z,1.92
2023-10-19T02:44:51.694Z,1.91
2023-10-19T02:45:06.247Z,1.91
2023-10-19T02:45:19.557Z,1.91
2023-10-19T02:45:32.604Z,1.93
2023-10-19T02:45:49.017Z,1.91
2023-10-19T02:46:03.635Z,1.92
2023-10-19T02:46:18.643Z,1.91
2023-10-19T02:46:33.168Z,1.90
2023-10-19T02:46:46.362Z,1.90
2023-10-19T02:47:00.208Z,1.89
2023-10-19T02:47:13.554Z,1.88
2023-10-19T02:47:30.118Z,1.88
2023-10-19T02:47:45.944Z,1.89
2023-10-19T02:47:59.901Z,1.88
2023-10-19T02:48:14.257Z,1.87
2023-10-19T02:48:26.911Z,1.87
2023-10-19T02:48:39.600Z,1.88
2023-10-19T02:48:52.242Z,1.88
2023-10-19T02:49:10.614Z,1.86
2023-10-19T02:49:23.917Z,1.87
2023-10-19T02:49:40.033Z,1.86
2023-10-19T02:49:56.968Z,1.88
2023-10-19T02:50:14.332Z,1.87
2023-10-19T02:50:27.645Z,1.86
2023-10-19T02:50:40.374Z,1.87
2023-10-19T02:50:54.056Z,1.87
2023-10-19T02:51:12.098Z,1.87
2023-10-19T02:51:24.849Z,1.87
2023-10-19T02:51:38.287Z,1.87
2023-10-19T02:51:53.385Z,1.87
2023-10-19T02:52:06.610Z,1.85
2023-10-19T02:52:19.539Z,1.86
2023-10-19T02:52:32.479Z,1.85
2023-10-19T02:52:45.215Z,1.85
2023-10-19T02:52:57.938Z,1.85
2023-10-19T02:53:14.752Z,1.86
2023-10-19T02:53:29.263Z,1.86
2023-10-19T02:53:42.032Z,1.86
2023-10-19T02:53:54.860Z,1.86
2023-10-19T02:54:08.788Z,1.86
2023-10-19T02:54:24.001Z,1.86
2023-10-19T02:54:37.289Z,1.86
2023-10-19T02:54:50.053Z,1.86
2023-10-19T02:55:05.637Z,1.86
2023-10-19T02:55:18.260Z,1.85
2023-10-19T02:55:30.990Z,1.86
2023-10-19T02:55:43.773Z,1.85
2023-10-19T02:56:00.988Z,1.85
2023-10-19T02:56:17.477Z,1.85
2023-10-19T02:56:31.184Z,1.86
2023-10-19T02:56:44.305Z,1.85
2023-10-19T02:56:58.103Z,1.85
2023-10-19T02:57:13.442Z,1.85
2023-10-19T02:57:26.492Z,1.85
2023-10-19T02:57:39.275Z,1.86
2023-10-19T02:57:51.990Z,1.85
2023-10-19T02:58:06.414Z,1.85
2023-10-19T02:58:19.042Z,1.85
2023-10-19T02:58:31.672Z,1.85
2023-10-19T02:58:50.069Z,1.85
2023-10-19T02:59:05.033Z,1.84
2023-10-19T02:59:18.549Z,1.84
2023-10-19T02:59:31.205Z,1.83
2023-10-19T02:59:43.798Z,1.84
2023-10-19T02:59:56.660Z,1.84
2023-10-19T03:00:13.141Z,1.84
2023-10-19T03:00:33.729Z,1.84
2023-10-19T03:00:47.225Z,1.84
2023-10-19T03:01:01.584Z,1.85
2023-10-19T03:01:18.494Z,1.84
2023-10-19T03:01:33.034Z,1.84
2023-10-19T03:01:46.073Z,1.85
2023-10-19T03:02:03.298Z,1.84
2023-10-19T03:02:18.676Z,1.85
2023-10-19T03:02:31.807Z,1.84
2023-10-19T03:02:44.703Z,1.85
2023-10-19T03:02:57.583Z,1.85
2023-10-19T03:03:10.316Z,1.83
2023-10-19T03:03:23.157Z,1.84
2023-10-19T03:03:35.802Z,1.84
2023-10-19T03:03:52.090Z,1.84
2023-10-19T03:04:05.916Z,1.83
2023-10-19T03:04:19.103Z,1.84
2023-10-19T03:04:32.070Z,1.81
2023-10-19T03:04:46.514Z,1.81
2023-10-19T03:04:59.793Z,1.81
2023-10-19T03:05:15.573Z,1.81
2023-10-19T03:05:28.936Z,1.81
2023-10-19T03:05:44.327Z,1.81
2023-10-19T03:06:00.994Z,1.81
2023-10-19T03:06:13.751Z,1.81
2023-10-19T03:06:26.882Z,1.80
2023-10-19T03:06:41.795Z,1.79
2023-10-19T03:06:54.439Z,1.79
2023-10-19T03:07:08.502Z,1.79
2023-10-19T03:07:21.462Z,1.80
2023-10-19T03:07:34.141Z,1.79
2023-10-19T03:07:46.852Z,1.80
2023-10-19T03:07:59.676Z,1.81
2023-10-19T03:08:16.976Z,1.80
2023-10-19T03:08:30.263Z,1.81
2023-10-19T03:08:42.855Z,1.81
2023-10-19T03:08:58.981Z,1.82
2023-10-19T03:09:17.049Z,1.81
2023-10-19T03:09:31.134Z,1.81
2023-10-19T03:09:50.233Z,1.82
2023-10-19T03:10:03.704Z,1.82
2023-10-19T03:10:24.141Z,1.82
2023-10-19T03:10:43.434Z,1.84
2023-10-19T03:11:05.023Z,1.84
2023-10-19T03:11:18.245Z,1.82
2023-10-19T03:11:30.905Z,1.84
2023-10-19T03:11:45.616Z,1.84
2023-10-19T03:12:01.207Z,1.84
2023-10-19T03:12:15.171Z,1.82
2023-10-19T03:12:28.049Z,1.83
2023-10-19T03:12:41.938Z,1.84
2023-10-19T03:12:54.572Z,1.83
2023-10-19T03:13:07.236Z,1.82
2023-10-19T03:13:20.615Z,1.82
2023-10-19T03:13:34.068Z,1.83
2023-10-19T03:13:51.283Z,1.81
2023-10-19T03:14:06.395Z,1.82
2023-10-19T03:14:19.224Z,1.82
2023-10-19T03:14:32.851Z,1.80
2023-10-19T03:14:48.781Z,1.81
2023-10-19T03:15:01.802Z,1.79
2023-10-19T03:15:15.652Z,1.80
2023-10-19T03:15:31.441Z,1.80
2023-10-19T03:15:46.812Z,1.80
2023-10-19T03:15:59.653Z,1.79
2023-10-19T03:16:12.285Z,1.77
2023-10-19T03:16:25.384Z,1.77
2023-10-19T03:16:39.052Z,1.75
2023-10-19T03:16:52.363Z,1.76
2023-10-19T03:17:06.655Z,1.74
2023-10-19T03:17:19.551Z,1.73
2023-10-19T03:17:33.169Z,1.73
2023-10-19T03:17:46.441Z,1.74
2023-10-19T03:17:59.321Z,1.73
2023-10-19T03:18:13.113Z,1.72
2023-10-19T03:18:26.958Z,1.72
2023-10-19T03:18:40.101Z,1.72
2023-10-19T03:18:56.213Z,1.71
2023-10-19T03:19:09.236Z,1.71
2023-10-19T03:19:22.007Z,1.71
2023-10-19T03:19:36.005Z,1.70
2023-10-19T03:19:50.133Z,1.72
2023-10-19T03:20:06.903Z,1.71
2023-10-19T03:20:24.895Z,1.72
2023-10-19T03:20:39.332Z,1.73
2023-10-19T03:20:52.164Z,1.73
2023-10-19T03:21:04.946Z,1.72
2023-10-19T03:21:18.075Z,1.73
2023-10-19T03:21:35.330Z,1.73
2023-10-19T03:21:50.232Z,1.75